Time;durP1;ratioP1;P1;durP2;ratioP2;P2;SDS_P1;SDS_P2;PMS_P1;PMS_P2;Temp;Humidity;BMP_temperature;BMP_pressure;BME280_temperature;BME280_humidity;BME280_pressure;Samples;Min_cycle;Max_cycle;Signal;HPM_P1;HPM_P2
2023/09/22 00:02:09;;;;;;;3.90;2.97;;;;;;;17.04;100.00;99153.75;5022167;28;20033;-78
2023/09/22 00:04:35;;;;;;;4.90;2.90;;;;;;;16.93;100.00;99149.22;5027457;28;20024;-76
2023/09/22 00:07:01;;;;;;;5.05;3.45;;;;;;;17.02;100.00;99155.84;5035098;28;20036;-75
2023/09/22 00:09:26;;;;;;;3.05;2.75;;;;;;;17.02;100.00;99145.06;5033888;28;20044;-77
2023/09/22 00:11:52;;;;;;;5.78;2.47;;;;;;;17.08;100.00;99144.91;5028869;28;20033;-76
2023/09/22 00:14:18;;;;;;;3.87;2.87;;;;;;;17.02;100.00;99135.13;5031693;28;20041;-76
2023/09/22 00:16:43;;;;;;;5.57;2.72;;;;;;;17.06;100.00;99135.44;5030730;28;20370;-76
2023/09/22 00:19:09;;;;;;;3.17;2.43;;;;;;;16.93;100.00;99130.34;5034747;28;20028;-77
2023/09/22 00:21:35;;;;;;;5.73;2.30;;;;;;;16.92;100.00;99134.94;5032131;28;20034;-76
2023/09/22 00:24:02;;;;;;;2.83;2.30;;;;;;;16.85;100.00;99136.97;5035861;28;20032;-78
2023/09/22 00:26:28;;;;;;;2.22;2.00;;;;;;;16.79;100.00;99137.97;5029667;28;20037;-78
2023/09/22 00:28:53;;;;;;;3.57;2.47;;;;;;;16.78;100.00;99133.56;5035190;28;20035;-76
2023/09/22 00:31:18;;;;;;;3.93;2.17;;;;;;;16.77;100.00;99140.03;5032780;28;20516;-76
2023/09/22 00:33:44;;;;;;;3.17;2.27;;;;;;;16.68;100.00;99142.31;5021432;28;20056;-74
2023/09/22 00:36:09;;;;;;;2.27;1.77;;;;;;;16.68;100.00;99145.00;5036102;28;20045;-75
2023/09/22 00:38:34;;;;;;;5.00;2.63;;;;;;;16.70;100.00;99142.06;5030564;28;20029;-74
2023/09/22 00:41:00;;;;;;;2.80;2.40;;;;;;;16.74;100.00;99148.59;5039793;28;20024;-75
2023/09/22 00:43:25;;;;;;;6.90;3.30;;;;;;;16.49;100.00;99147.06;5026151;28;20559;-76
2023/09/22 00:45:52;;;;;;;4.87;2.70;;;;;;;16.46;100.00;99159.16;5024492;28;20094;-77
2023/09/22 00:48:30;;;;;;;3.55;2.85;;;;;;;16.58;100.00;99158.28;5030045;28;20084;-76
2023/09/22 00:50:56;;;;;;;3.90;2.60;;;;;;;16.59;100.00;99168.00;5020682;28;20033;-76
2023/09/22 00:53:27;;;;;;;3.45;2.63;;;;;;;16.54;100.00;99187.56;5021817;28;20084;-77
2023/09/22 00:55:53;;;;;;;5.25;3.00;;;;;;;16.52;100.00;99194.25;5039168;28;20529;-78
2023/09/22 00:58:22;;;;;;;7.03;3.13;;;;;;;16.46;100.00;99202.25;5036124;28;20095;-79
2023/09/22 01:00:48;;;;;;;6.57;3.10;;;;;;;16.36;100.00;99204.72;5024962;28;20484;-79
2023/09/22 01:03:15;;;;;;;5.50;3.10;;;;;;;16.22;100.00;99192.56;5044027;28;20157;-79
2023/09/22 01:05:40;;;;;;;2.50;2.15;;;;;;;16.33;100.00;99191.72;5026167;28;20080;-79
2023/09/22 01:08:05;;;;;;;6.60;3.15;;;;;;;16.35;100.00;99183.41;5038036;28;20017;-79
2023/09/22 01:10:40;;;;;;;4.23;3.50;;;;;;;16.43;100.00;99193.81;5024413;28;20493;-80
2023/09/22 01:13:06;;;;;;;4.25;3.53;;;;;;;16.41;100.00;99185.13;5025819;28;20030;-80
2023/09/22 01:15:33;;;;;;;4.57;3.50;;;;;;;16.43;100.00;99183.84;5036536;28;20040;-78
2023/09/22 01:17:59;;;;;;;5.53;3.40;;;;;;;16.40;100.00;99178.94;5040987;28;20032;-78
2023/09/22 01:20:25;;;;;;;7.20;3.50;;;;;;;16.41;100.00;99172.50;5031042;28;20439;-77
2023/09/22 01:22:50;;;;;;;5.28;3.85;;;;;;;16.30;100.00;99176.06;5054137;28;20093;-78
2023/09/22 01:25:18;;;;;;;3.85;3.22;;;;;;;16.40;100.00;99176.25;5034335;28;20124;-78
2023/09/22 01:27:43;;;;;;;4.35;3.45;;;;;;;16.29;100.00;99169.00;5022916;28;20116;-79
2023/09/22 01:30:10;;;;;;;4.70;3.80;;;;;;;16.21;100.00;99169.41;5034482;28;20029;-77
2023/09/22 01:32:39;;;;;;;5.93;3.33;;;;;;;16.15;100.00;99162.25;5022049;28;20036;-78
2023/09/22 01:35:07;;;;;;;4.10;3.47;;;;;;;16.15;100.00;99164.94;5037483;28;20025;-78
2023/09/22 01:37:36;;;;;;;4.78;3.72;;;;;;;16.17;100.00;99155.59;5034419;28;20025;-78
2023/09/22 01:40:02;;;;;;;4.65;3.85;;;;;;;16.11;100.00;99156.56;5036283;28;20120;-79
2023/09/22 01:42:27;;;;;;;6.68;5.05;;;;;;;16.20;100.00;99162.38;5022062;28;20129;-79
2023/09/22 01:44:53;;;;;;;5.53;4.10;;;;;;;16.12;100.00;99157.38;5007017;28;20053;-79
2023/09/22 01:47:18;;;;;;;6.43;4.23;;;;;;;16.03;100.00;99165.78;5036567;28;20327;-79
2023/09/22 01:49:44;;;;;;;;;;;;;;;16.17;100.00;99166.34;5036475;28;20508;-79
2023/09/22 01:52:10;;;;;;;6.63;5.68;;;;;;;16.11;100.00;99172.69;5039401;28;19912;-78
2023/09/22 01:54:35;;;;;;;7.60;5.40;;;;;;;16.09;100.00;99174.00;5005536;28;20034;-79
2023/09/22 01:57:00;;;;;;;7.10;5.73;;;;;;;16.04;100.00;99164.75;5035684;28;20051;-80
2023/09/22 01:59:26;;;;;;;7.87;5.40;;;;;;;15.99;100.00;99177.25;5023917;28;20477;-80
2023/09/22 02:01:51;;;;;;;7.90;6.70;;;;;;;15.97;100.00;99180.22;5036970;28;20045;-79
2023/09/22 02:04:17;;;;;;;8.90;6.88;;;;;;;16.06;100.00;99185.22;5035083;28;20034;-79
2023/09/22 02:06:42;;;;;;;9.90;7.10;;;;;;;15.90;100.00;99184.09;5026608;28;20028;-80
2023/09/22 02:09:08;;;;;;;8.83;6.60;;;;;;;15.88;100.00;99195.06;5036313;28;20083;-78
2023/09/22 02:11:33;;;;;;;10.05;7.47;;;;;;;15.79;100.00;99180.34;5035405;28;20497;-78
2023/09/22 02:13:59;;;;;;;8.73;7.83;;;;;;;15.73;100.00;99186.66;5034841;28;20498;-79
2023/09/22 02:16:25;;;;;;;13.30;9.15;;;;;;;15.66;100.00;99183.22;5034152;28;20120;-78
2023/09/22 02:18:50;;;;;;;11.57;8.80;;;;;;;15.77;100.00;99187.81;5037281;28;20053;-79
2023/09/22 02:21:17;;;;;;;10.27;8.67;;;;;;;15.78;100.00;99184.06;5036502;28;20037;-77
2023/09/22 02:23:42;;;;;;;11.65;8.85;;;;;;;15.76;100.00;99191.56;5020673;28;20404;-78
2023/09/22 02:26:08;;;;;;;11.73;9.53;;;;;;;15.77;100.00;99194.00;5037506;28;20112;-77
2023/09/22 02:28:34;;;;;;;14.38;10.35;;;;;;;15.76;100.00;99196.97;5023927;28;20464;-78
2023/09/22 02:31:02;;;;;;;11.75;9.30;;;;;;;15.88;100.00;99189.69;5035992;28;20546;-79
2023/09/22 02:33:29;;;;;;;9.97;8.73;;;;;;;15.91;100.00;99193.78;5034247;28;20033;-77
2023/09/22 02:35:54;;;;;;;9.55;7.70;;;;;;;15.81;100.00;99178.25;5035187;28;20488;-77
2023/09/22 02:38:20;;;;;;;9.37;7.70;;;;;;;15.74;100.00;99174.84;5035954;28;20026;-77
2023/09/22 02:40:45;;;;;;;7.50;6.77;;;;;;;15.81;100.00;99181.75;5025883;28;20488;-78
2023/09/22 02:43:10;;;;;;;9.47;6.77;;;;;;;15.79;100.00;99183.03;5026682;28;20477;-78
2023/09/22 02:45:40;;;;;;;7.33;6.50;;;;;;;15.77;100.00;99187.81;5034208;28;20481;-78
2023/09/22 02:48:06;;;;;;;8.50;7.32;;;;;;;15.73;100.00;99187.50;5035479;28;20037;-78
2023/09/22 02:50:33;;;;;;;7.65;6.70;;;;;;;15.78;100.00;99205.59;5023017;28;20018;-78
2023/09/22 02:52:58;;;;;;;;;;;;;;;15.81;100.00;99213.22;5036267;28;20041;-78
2023/09/22 02:55:23;;;;;;;11.50;7.47;;;;;;;15.72;100.00;99209.22;5049982;28;19917;-78
2023/09/22 02:57:50;;;;;;;8.67;6.43;;;;;;;15.76;100.00;99207.72;5034857;28;20030;-77
2023/09/22 03:00:18;;;;;;;6.15;4.28;;;;;;;15.68;100.00;99205.34;5012612;28;20033;-77
2023/09/22 03:02:43;;;;;;;3.20;2.83;;;;;;;15.53;100.00;99203.13;5022638;28;20116;-78
2023/09/22 03:05:10;;;;;;;4.72;3.00;;;;;;;15.44;100.00;99205.31;5037606;28;20051;-77
2023/09/22 03:07:36;;;;;;;4.07;2.78;;;;;;;15.38;100.00;99198.16;5034754;28;20042;-78
2023/09/22 03:10:06;;;;;;;5.30;3.10;;;;;;;15.43;100.00;99192.94;5034947;28;20040;-78
2023/09/22 03:12:33;;;;;;;4.28;2.90;;;;;;;15.45;100.00;99196.19;5024392;28;20033;-78
2023/09/22 03:14:58;;;;;;;2.97;2.45;;;;;;;15.55;100.00;99192.94;5037796;28;20017;-77
2023/09/22 03:17:24;;;;;;;5.43;3.00;;;;;;;15.50;100.00;99190.94;5025102;28;20034;-77
2023/09/22 03:19:49;;;;;;;3.70;2.83;;;;;;;15.54;100.00;99192.09;5040265;28;20496;-76
2023/09/22 03:22:15;;;;;;;3.10;2.80;;;;;;;15.55;100.00;99195.63;5038569;28;20033;-77
2023/09/22 03:24:40;;;;;;;4.83;3.07;;;;;;;15.47;100.00;99198.66;5025722;28;20049;-77
2023/09/22 03:27:06;;;;;;;5.03;3.60;;;;;;;15.29;100.00;99192.31;5038599;28;20033;-78
2023/09/22 03:29:31;;;;;;;5.10;3.13;;;;;;;15.35;100.00;99193.25;5024283;28;20448;-78
2023/09/22 03:31:57;;;;;;;5.00;3.93;;;;;;;15.35;100.00;99206.69;5040332;28;20029;-77
2023/09/22 03:34:23;;;;;;;5.67;3.17;;;;;;;15.36;100.00;99213.72;5037164;28;20052;-78
2023/09/22 03:36:49;;;;;;;5.15;3.38;;;;;;;15.31;100.00;99210.91;5025113;28;20029;-77
2023/09/22 03:39:16;;;;;;;4.55;3.65;;;;;;;15.31;100.00;99211.72;5034638;28;20491;-77
2023/09/22 03:41:42;;;;;;;5.03;3.10;;;;;;;15.30;100.00;99209.28;5027435;28;20029;-77
2023/09/22 03:44:08;;;;;;;3.38;3.05;;;;;;;15.23;100.00;99219.31;5029942;28;20059;-78
2023/09/22 03:46:34;;;;;;;5.25;3.53;;;;;;;15.09;100.00;99214.13;5035372;28;20042;-78
2023/09/22 03:48:59;;;;;;;3.30;2.80;;;;;;;15.17;100.00;99216.50;5023713;28;20022;-76
2023/09/22 03:51:25;;;;;;;5.18;3.10;;;;;;;15.06;100.00;99225.34;5036401;28;20085;-77
2023/09/22 03:53:50;;;;;;;4.00;3.20;;;;;;;14.97;100.00;99237.44;5022441;28;20037;-78
2023/09/22 03:56:15;;;;;;;3.03;2.73;;;;;;;14.96;100.00;99247.38;5037329;28;20017;-74
2023/09/22 03:58:42;;;;;;;3.38;2.53;;;;;;;15.02;100.00;99248.34;5020717;28;20037;-77
2023/09/22 04:01:08;;;;;;;3.88;2.50;;;;;;;14.96;100.00;99252.75;5034869;28;20067;-76
2023/09/22 04:03:34;;;;;;;3.33;2.17;;;;;;;14.96;100.00;99258.13;5021894;28;20459;-75
2023/09/22 04:06:00;;;;;;;2.28;2.05;;;;;;;14.91;100.00;99262.53;5030873;28;20114;-76
2023/09/22 04:08:26;;;;;;;2.88;2.60;;;;;;;14.97;100.00;99272.38;5032641;28;20045;-76
2023/09/22 04:10:51;;;;;;;4.57;2.63;;;;;;;14.96;100.00;99262.66;5023364;28;20021;-76
2023/09/22 04:13:18;;;;;;;4.07;2.33;;;;;;;15.03;100.00;99250.00;5032886;28;20094;-77
2023/09/22 04:15:45;;;;;;;3.00;2.50;;;;;;;14.91;100.00;99251.78;5020768;28;20104;-76
2023/09/22 04:18:11;;;;;;;2.65;2.20;;;;;;;14.95;100.00;99250.28;5020792;28;20028;-76
2023/09/22 04:20:37;;;;;;;3.80;2.10;;;;;;;14.77;100.00;99240.38;5032097;28;20512;-77
2023/09/22 04:23:04;;;;;;;1.98;1.77;;;;;;;14.86;100.00;99251.66;5032811;28;20519;-76
2023/09/22 04:25:33;;;;;;;3.65;1.73;;;;;;;14.85;100.00;99245.47;5031761;28;20108;-76
2023/09/22 04:28:09;;;;;;;2.55;1.88;;;;;;;14.72;100.00;99233.00;5035952;28;20044;-76
2023/09/22 04:30:36;;;;;;;2.65;1.75;;;;;;;14.68;100.00;99237.22;5033268;28;20127;-76
2023/09/22 04:33:05;;;;;;;3.88;2.22;;;;;;;14.85;100.00;99248.16;5033268;28;20126;-76
2023/09/22 04:35:33;;;;;;;2.67;1.50;;;;;;;14.74;100.00;99241.66;5032825;28;20030;-76
2023/09/22 04:37:59;;;;;;;1.80;1.60;;;;;;;14.77;100.00;99227.81;5032287;28;20036;-76
2023/09/22 04:40:29;;;;;;;3.60;2.00;;;;;;;14.75;100.00;99237.94;5031708;28;20128;-76
2023/09/22 04:42:54;;;;;;;2.45;1.83;;;;;;;14.62;100.00;99224.69;5019080;28;20126;-75
2023/09/22 04:45:21;;;;;;;4.77;1.70;;;;;;;14.75;100.00;99255.94;5025676;28;20480;-76
2023/09/22 04:47:53;;;;;;;1.50;1.40;;;;;;;14.82;100.00;99245.09;5021519;28;20040;-77
2023/09/22 04:50:19;;;;;;;1.90;1.73;;;;;;;14.77;100.00;99257.34;5039129;28;20119;-76
2023/09/22 04:52:45;;;;;;;1.98;1.33;;;;;;;14.86;100.00;99267.78;5032784;28;20053;-76
2023/09/22 04:55:11;;;;;;;2.15;1.92;;;;;;;14.80;100.00;99279.41;5034024;28;20514;-76
2023/09/22 04:57:37;;;;;;;2.00;1.80;;;;;;;14.79;100.00;99286.66;5021993;28;20061;-76
2023/09/22 05:00:13;;;;;;;4.22;2.05;;;;;;;14.73;100.00;99280.34;5036756;28;20032;-76
2023/09/22 05:02:38;;;;;;;;;;;;;;;14.87;100.00;99280.19;5021515;28;20616;-77
2023/09/22 05:05:04;;;;;;;3.40;2.78;;;;;;;14.85;100.00;99284.94;5038611;28;19964;-76
2023/09/22 05:07:30;;;;;;;7.30;3.53;;;;;;;14.96;100.00;99284.16;5032340;28;20029;-76
2023/09/22 05:09:55;;;;;;;6.50;3.05;;;;;;;15.00;100.00;99279.97;5036708;28;20025;-77
2023/09/22 05:12:21;;;;;;;2.97;2.70;;;;;;;15.01;100.00;99278.97;5033385;28;20064;-76
2023/09/22 05:14:47;;;;;;;3.88;3.05;;;;;;;15.00;100.00;99282.69;5035185;28;20056;-76
2023/09/22 05:17:13;;;;;;;5.17;4.17;;;;;;;14.97;100.00;99275.88;5027558;28;20066;-77
2023/09/22 05:19:39;;;;;;;6.78;4.20;;;;;;;14.87;100.00;99280.19;5032971;28;20593;-76
2023/09/22 05:22:04;;;;;;;5.47;3.87;;;;;;;14.95;100.00;99290.59;5033431;28;20016;-75
2023/09/22 05:24:31;;;;;;;5.73;3.97;;;;;;;14.87;100.00;99286.38;5028169;28;20043;-76
2023/09/22 05:26:56;;;;;;;4.22;3.80;;;;;;;14.76;100.00;99287.94;5018980;28;20076;-76
2023/09/22 05:29:22;;;;;;;5.07;4.57;;;;;;;14.76;100.00;99296.00;5034358;28;20431;-76
2023/09/22 05:31:47;;;;;;;5.00;4.03;;;;;;;14.75;100.00;99293.56;5036376;28;20530;-76
2023/09/22 05:34:13;;;;;;;4.13;3.50;;;;;;;14.79;100.00;99289.34;5037324;28;20495;-76
2023/09/22 05:36:39;;;;;;;4.90;4.18;;;;;;;14.86;100.00;99291.97;5032599;28;20033;-76
2023/09/22 05:39:05;;;;;;;5.10;3.95;;;;;;;14.84;100.00;99292.16;5035106;28;20484;-75
2023/09/22 05:41:31;;;;;;;5.95;3.60;;;;;;;14.89;100.00;99281.59;5033175;28;20033;-77
2023/09/22 05:43:56;;;;;;;7.93;3.27;;;;;;;14.77;100.00;99280.69;5037532;28;20051;-77
2023/09/22 05:46:23;;;;;;;4.57;4.13;;;;;;;14.77;100.00;99294.13;5016243;28;20064;-78
2023/09/22 05:48:49;;;;;;;5.90;3.90;;;;;;;14.83;100.00;99300.47;5034018;28;20034;-76
2023/09/22 05:51:14;;;;;;;4.77;3.80;;;;;;;14.62;100.00;99302.56;5031311;28;20400;-77
2023/09/22 05:53:40;;;;;;;3.30;3.00;;;;;;;14.73;100.00;99323.31;5031590;28;20299;-78
2023/09/22 05:56:06;;;;;;;6.10;3.17;;;;;;;14.73;100.00;99334.06;5033961;28;20036;-77
2023/09/22 05:58:35;;;;;;;;;;;;;;;14.70;100.00;99341.72;5030665;28;20022;-78
2023/09/22 06:01:11;;;;;;;6.38;4.28;;;;;;;14.73;100.00;99339.44;5033631;28;19923;-78
2023/09/22 06:03:37;;;;;;;3.83;3.28;;;;;;;14.62;100.00;99342.84;5033402;28;20045;-78
2023/09/22 06:06:15;;;;;;;4.25;3.80;;;;;;;14.77;100.00;99361.28;5033783;28;20029;-78
2023/09/22 06:08:46;;;;;;;4.25;3.55;;;;;;;14.81;100.00;99367.03;5032792;28;20036;-77
2023/09/22 06:11:13;;;;;;;6.45;3.88;;;;;;;14.83;100.00;99362.28;5033042;28;20108;-77
2023/09/22 06:13:39;;;;;;;;;;;;;;;14.94;100.00;99345.41;5032741;28;20052;-77
2023/09/22 06:16:05;;;;;;;;;;;;;;;14.81;100.00;99307.94;5032954;28;19954;-78
2023/09/22 06:18:30;;;;;;;;;;;;;;;14.78;100.00;99318.09;5016814;28;19943;-77
2023/09/22 06:20:56;;;;;;;;;;;;;;;14.76;100.00;99332.78;5035437;28;20384;-77
2023/09/22 06:23:23;;;;;;;7.22;4.95;;;;;;;14.88;100.00;99335.53;5033039;28;19916;-78
2023/09/22 06:25:50;;;;;;;7.00;5.68;;;;;;;14.88;100.00;99346.28;5032431;28;20564;-77
2023/09/22 06:28:15;;;;;;;6.72;5.55;;;;;;;14.95;100.00;99330.91;5033637;28;20033;-76
2023/09/22 06:30:41;;;;;;;8.97;6.50;;;;;;;14.85;100.00;99330.63;5018698;28;20095;-77
2023/09/22 06:33:07;;;;;;;9.02;7.65;;;;;;;14.96;100.00;99337.91;5037033;28;20086;-77
2023/09/22 06:35:33;;;;;;;9.73;6.97;;;;;;;14.98;100.00;99354.63;5017035;28;20045;-77
2023/09/22 06:37:58;;;;;;;9.95;7.93;;;;;;;14.92;100.00;99350.19;5034691;28;20016;-77
2023/09/22 06:40:24;;;;;;;10.10;7.20;;;;;;;14.93;100.00;99344.56;5032780;28;20037;-77
2023/09/22 06:42:49;;;;;;;8.60;6.97;;;;;;;15.00;100.00;99355.22;5034764;28;20482;-77
2023/09/22 06:45:18;;;;;;;9.13;7.00;;;;;;;14.89;100.00;99356.81;5032283;28;20035;-78
2023/09/22 06:47:43;;;;;;;8.35;6.95;;;;;;;15.04;100.00;99371.75;5031814;28;20045;-78
2023/09/22 06:50:11;;;;;;;7.97;6.30;;;;;;;15.23;100.00;99386.00;5035948;28;20552;-78
2023/09/22 06:52:40;;;;;;;9.00;5.65;;;;;;;15.13;100.00;99381.97;5022055;28;20508;-78
2023/09/22 06:55:09;;;;;;;6.90;5.70;;;;;;;15.14;100.00;99402.41;5039071;28;20495;-77
2023/09/22 06:57:36;;;;;;;8.50;6.65;;;;;;;15.10;100.00;99408.47;5035577;28;20098;-78
2023/09/22 07:00:38;;;;;;;12.80;7.50;;;;;;;14.91;100.00;99404.94;5037840;28;20021;-78
2023/09/22 07:02:56;;;;;;;9.82;7.15;;;;;;;15.02;100.00;99427.59;5040527;28;20215;-78
2023/09/22 07:05:22;;;;;;;10.07;7.17;;;;;;;14.97;100.00;99420.19;5036240;28;20132;-77
2023/09/22 07:07:50;;;;;;;14.67;9.13;;;;;;;14.89;100.00;99428.53;5035506;28;20491;-77
2023/09/22 07:10:16;;;;;;;11.73;8.38;;;;;;;14.97;100.00;99447.06;5036673;28;20112;-78
2023/09/22 07:12:42;;;;;;;13.27;9.35;;;;;;;15.12;100.00;99458.25;5018496;28;20129;-78
2023/09/22 07:15:08;;;;;;;13.43;9.43;;;;;;;15.12;100.00;99460.94;5021167;28;20021;-78
2023/09/22 07:17:34;;;;;;;13.25;10.23;;;;;;;15.09;100.00;99465.97;5035779;28;20131;-77
2023/09/22 07:20:04;;;;;;;12.57;9.50;;;;;;;15.06;100.00;99469.91;5037670;28;20037;-79
2023/09/22 07:22:30;;;;;;;12.75;9.43;;;;;;;15.22;100.00;99473.91;5035883;28;20111;-79
2023/09/22 07:24:56;;;;;;;15.60;11.65;;;;;;;15.19;100.00;99467.09;5039191;28;20108;-77
2023/09/22 07:27:23;;;;;;;16.03;10.97;;;;;;;15.39;100.00;99484.88;5033897;28;20034;-77
2023/09/22 07:29:50;;;;;;;15.98;12.40;;;;;;;15.39;100.00;99476.81;5026107;28;20361;-77
2023/09/22 07:32:19;;;;;;;17.58;11.38;;;;;;;15.34;100.00;99472.09;5035893;28;20029;-77
2023/09/22 07:34:54;;;;;;;17.08;13.30;;;;;;;15.25;100.00;99475.31;5039218;28;20412;-77
2023/09/22 07:37:19;;;;;;;17.52;13.63;;;;;;;15.30;100.00;99480.84;5034901;28;20091;-77
2023/09/22 07:39:48;;;;;;;19.97;13.63;;;;;;;15.37;100.00;99492.34;5034929;28;20073;-77
2023/09/22 07:42:15;;;;;;;16.58;13.02;;;;;;;15.48;100.00;99496.97;5036018;28;20283;-78
2023/09/22 07:44:40;;;;;;;17.65;13.60;;;;;;;15.57;100.00;99490.25;5034857;28;20078;-77
2023/09/22 07:47:10;;;;;;;22.80;15.30;;;;;;;15.53;100.00;99480.97;5036440;28;20071;-77
2023/09/22 07:49:40;;;;;;;19.60;14.50;;;;;;;15.63;100.00;99485.81;5035005;28;20439;-77
2023/09/22 07:52:09;;;;;;;19.08;14.98;;;;;;;15.57;100.00;99474.09;5035511;28;20132;-77
2023/09/22 07:54:34;;;;;;;20.10;15.52;;;;;;;15.68;100.00;99479.75;5018089;28;20435;-78
2023/09/22 07:57:01;;;;;;;20.88;15.73;;;;;;;15.45;100.00;99477.75;5037093;28;20093;-77
2023/09/22 07:59:29;;;;;;;22.20;16.65;;;;;;;15.34;100.00;99480.16;5033983;28;20087;-77
2023/09/22 08:01:55;;;;;;;20.38;15.57;;;;;;;15.45;100.00;99488.50;5033135;28;20458;-77
2023/09/22 08:04:20;;;;;;;18.65;14.85;;;;;;;15.53;100.00;99490.91;5035438;28;20121;-78
2023/09/22 08:06:46;;;;;;;19.50;15.17;;;;;;;15.57;100.00;99501.00;5036456;28;20084;-78
2023/09/22 08:09:13;;;;;;;19.92;15.25;;;;;;;15.44;100.00;99498.47;5035468;28;20391;-77
2023/09/22 08:11:38;;;;;;;;;;;;;;;15.56;100.00;99488.56;5039316;28;20069;-77
2023/09/22 08:14:03;;;;;;;;;;;;;;;15.88;100.00;99496.50;5041322;28;19977;-77
2023/09/22 08:16:28;;;;;;;19.00;13.87;;;;;;;16.13;100.00;99468.59;5035037;28;20426;-78
2023/09/22 08:18:57;;;;;;;15.03;12.60;;;;;;;17.14;100.00;99465.88;5037294;28;20060;-78
2023/09/22 08:21:24;;;;;;;15.07;10.60;;;;;;;17.89;100.00;99398.34;5031280;28;20033;-77
2023/09/22 08:23:50;;;;;;;12.55;10.07;;;;;;;17.70;100.00;99338.31;5037319;28;20048;-77
2023/09/22 08:26:17;;;;;;;15.43;10.75;;;;;;;17.65;100.00;99275.31;5035293;28;20111;-78
2023/09/22 08:28:47;;;;;;;14.35;11.88;;;;;;;17.17;100.00;99304.44;5034607;28;20488;-78
2023/09/22 08:31:13;;;;;;;14.70;10.75;;;;;;;17.04;100.00;99299.31;5037396;28;20557;-78
2023/09/22 08:33:39;;;;;;;14.80;10.88;;;;;;;16.74;100.00;99297.66;5019715;28;20042;-78
2023/09/22 08:36:05;;;;;;;16.75;12.85;;;;;;;16.76;100.00;99317.06;5014748;28;20115;-77
2023/09/22 08:38:31;;;;;;;13.52;10.75;;;;;;;16.81;100.00;99306.44;5012447;28;20068;-77
2023/09/22 08:40:57;;;;;;;;;;;;;;;16.68;100.00;99299.41;5010519;28;20028;-78
2023/09/22 08:43:23;;;;;;;13.60;9.45;;;;;;;16.52;100.00;99296.63;5037303;28;20291;-78
2023/09/22 08:45:49;;;;;;;12.80;8.52;;;;;;;16.60;100.00;99293.53;5035193;28;20030;-78
2023/09/22 08:48:14;;;;;;;10.73;9.63;;;;;;;16.70;100.00;99249.84;5034066;28;20123;-77
2023/09/22 08:50:39;;;;;;;12.10;9.00;;;;;;;17.11;100.00;99221.81;5035090;28;20120;-78
2023/09/22 08:53:05;;;;;;;10.63;8.37;;;;;;;16.96;100.00;99189.19;5035542;28;20032;-77
2023/09/22 08:55:30;;;;;;;9.20;7.83;;;;;;;17.03;100.00;99179.88;5032860;28;20037;-76
2023/09/22 08:57:56;;;;;;;12.97;8.87;;;;;;;16.93;100.00;99133.06;5036550;28;20036;-77
2023/09/22 09:00:26;;;;;;;10.10;7.57;;;;;;;17.57;100.00;99093.06;5033901;28;20029;-78
2023/09/22 09:02:55;;;;;;;8.07;7.05;;;;;;;17.70;100.00;99022.56;5036630;28;20087;-78
2023/09/22 09:05:28;;;;;;;6.40;5.78;;;;;;;18.04;100.00;99046.72;5033031;28;20396;-78
2023/09/22 09:07:54;;;;;;;10.52;7.60;;;;;;;18.17;100.00;98980.72;5036227;28;20346;-78
2023/09/22 09:10:27;;;;;;;7.90;7.10;;;;;;;18.30;100.00;98937.06;5033931;28;20454;-77
2023/09/22 09:12:54;;;;;;;9.13;7.93;;;;;;;18.14;100.00;98933.44;5035921;28;20020;-78
2023/09/22 09:15:26;;;;;;;11.63;7.75;;;;;;;18.01;100.00;98896.03;5032705;28;20041;-77
2023/09/22 09:18:06;;;;;;;9.68;6.72;;;;;;;18.86;100.00;98952.94;5034862;28;20056;-78
2023/09/22 09:20:33;;;;;;;11.75;6.97;;;;;;;18.21;100.00;98779.25;5030133;28;20541;-78
2023/09/22 09:22:58;;;;;;;8.90;7.25;;;;;;;17.71;100.00;98783.19;5034547;28;20048;-77
2023/09/22 09:25:24;;;;;;;10.70;7.88;;;;;;;17.16;100.00;98830.09;5017325;28;20390;-77
2023/09/22 09:28:02;;;;;;;9.53;7.80;;;;;;;16.99;100.00;98970.34;5032233;28;20047;-77
2023/09/22 09:30:29;;;;;;;8.77;7.80;;;;;;;16.86;100.00;98953.47;5029551;28;20037;-77
2023/09/22 09:33:09;;;;;;;9.35;7.68;;;;;;;17.04;100.00;99043.19;5033817;28;20036;-76
2023/09/22 09:35:35;;;;;;;7.32;6.57;;;;;;;16.87;100.00;98971.25;5030340;28;20400;-77
2023/09/22 09:38:02;;;;;;;9.90;7.65;;;;;;;16.85;100.00;99043.44;5035604;28;20037;-77
2023/09/22 09:40:27;;;;;;;9.73;6.35;;;;;;;17.16;100.00;99054.72;5033204;28;20571;-77
2023/09/22 09:42:54;;;;;;;7.80;7.00;;;;;;;17.21;100.00;99033.22;5035644;28;20025;-77
2023/09/22 09:45:24;;;;;;;8.48;6.10;;;;;;;17.33;100.00;98935.22;5032622;28;20414;-77
2023/09/22 09:47:54;;;;;;;6.25;5.65;;;;;;;17.42;100.00;98936.38;5020447;28;20135;-77
2023/09/22 09:50:21;;;;;;;8.65;6.63;;;;;;;17.54;100.00;98901.22;5036679;28;20044;-78
2023/09/22 09:52:53;;;;;;;7.47;6.22;;;;;;;17.58;100.00;98843.75;5034628;28;20083;-77
2023/09/22 09:55:20;;;;;;;8.25;6.15;;;;;;;17.08;100.00;98856.44;5033263;28;20480;-77
2023/09/22 09:57:46;;;;;;;7.85;5.13;;;;;;;17.38;100.00;98964.94;5034636;28;20052;-77
2023/09/22 10:00:15;;;;;;;6.65;5.55;;;;;;;17.77;100.00;98891.97;5034463;28;20021;-78
2023/09/22 10:02:43;;;;;;;7.35;5.07;;;;;;;18.26;100.00;98835.19;5034555;28;20144;-77
2023/09/22 10:05:11;;;;;;;5.88;3.90;;;;;;;18.52;100.00;98858.63;5032896;28;20029;-78
2023/09/22 10:07:38;;;;;;;8.43;4.78;;;;;;;18.41;100.00;98713.75;5020010;28;20489;-78
2023/09/22 10:10:05;;;;;;;4.80;4.15;;;;;;;17.79;100.00;98606.47;5039241;28;20052;-77
2023/09/22 10:12:31;;;;;;;6.03;4.35;;;;;;;17.91;100.00;98742.06;5033522;28;20037;-77
2023/09/22 10:15:01;;;;;;;4.88;4.28;;;;;;;18.01;100.00;98746.75;5035373;28;20024;-77
2023/09/22 10:17:27;;;;;;;4.40;3.63;;;;;;;18.63;100.00;98758.69;5028302;28;20029;-77
2023/09/22 10:19:52;;;;;;;5.10;4.13;;;;;;;18.88;100.00;98542.53;5034665;28;20416;-78
2023/09/22 10:22:20;;;;;;;5.15;3.22;;;;;;;19.19;100.00;98629.06;5032727;28;20438;-77
2023/09/22 10:24:46;;;;;;;6.63;4.50;;;;;;;18.48;100.00;98329.84;5033612;28;20041;-77
2023/09/22 10:27:14;;;;;;;4.47;3.70;;;;;;;18.33;100.00;98466.56;5033381;28;20291;-77
2023/09/22 10:29:42;;;;;;;5.10;4.57;;;;;;;18.38;100.00;98456.81;5033401;28;20057;-77
2023/09/22 10:34:47;;;;;;;6.03;4.88;;;;;;;17.66;100.00;98400.00;5033206;28;20095;-77
2023/09/22 10:37:13;;;;;;;7.93;4.43;;;;;;;18.32;100.00;98591.88;5033304;28;20025;-77
2023/09/22 10:40:14;;;;;;;5.22;4.70;;;;;;;18.61;100.00;98406.81;5033200;28;20037;-76
2023/09/22 10:42:44;;;;;;;4.78;4.22;;;;;;;18.52;100.00;98474.13;5030899;28;20033;-77
2023/09/22 10:45:10;;;;;;;6.75;5.32;;;;;;;18.32;100.00;98499.22;5038446;28;20044;-76
2023/09/22 10:47:43;;;;;;;5.30;4.80;;;;;;;18.93;100.00;98515.50;5032028;28;20042;-77
2023/09/22 10:50:12;;;;;;;4.65;4.25;;;;;;;18.15;100.00;98421.16;5034340;28;20738;-78
2023/09/22 10:52:38;;;;;;;5.45;4.28;;;;;;;17.77;100.00;98554.63;5032869;28;20506;-77
2023/09/22 10:55:05;;;;;;;5.63;4.68;;;;;;;18.12;100.00;98676.34;5034589;28;20051;-77
2023/09/22 10:57:31;;;;;;;5.93;5.07;;;;;;;17.94;100.00;98520.19;5030981;28;20033;-77
2023/09/22 10:59:57;;;;;;;5.45;3.28;;;;;;;17.67;100.00;98633.66;5031067;28;20477;-76
2023/09/22 11:02:26;;;;;;;4.70;3.72;;;;;;;17.87;100.00;98641.09;5036705;28;20034;-77
2023/09/22 11:04:52;;;;;;;3.95;3.58;;;;;;;17.92;100.00;98557.44;5034149;28;20036;-75
2023/09/22 11:07:34;;;;;;;3.08;2.78;;;;;;;18.60;100.00;98618.69;5032502;28;20037;-77
2023/09/22 11:10:02;;;;;;;6.40;3.95;;;;;;;18.34;100.00;98289.88;5036708;28;20381;-77
2023/09/22 11:12:28;;;;;;;4.22;3.10;;;;;;;18.25;100.00;98369.03;5031821;28;20101;-77
2023/09/22 11:14:54;;;;;;;3.22;2.47;;;;;;;19.38;100.00;98586.03;5034402;28;20115;-77
2023/09/22 11:17:20;;;;;;;;;;;;;;;19.19;100.00;98408.06;5031593;28;20064;-76
2023/09/22 11:19:53;;;;;;;3.03;2.67;;;;;;;19.12;100.00;98264.22;5016667;28;19909;-77
2023/09/22 11:22:19;;;;;;;3.17;2.88;;;;;;;18.67;100.00;98303.88;5035509;28;20040;-77
2023/09/22 11:24:48;;;;;;;;;;;;;;;19.18;100.00;98119.00;5035432;28;20037;-77
2023/09/22 11:27:14;;;;;;;4.15;2.22;;;;;;;19.70;100.00;98189.75;5031487;28;20035;-78
2023/09/22 11:29:40;;;;;;;3.92;2.15;;;;;;;20.72;100.00;97976.38;5032882;28;20108;-76